Airfield :
LOGIN :

Register | Disclaimer

   EN    FR    IT 

 










Legend :    VFR   Marginal VFR   IFR   Intensive IFR   Very Intensive IFR
Visi :
Ceiling :
>= 8 km
>= 3000ft
5 to 8 km
1000 to 3000 ft
1500m to 5 km
500 to 1000 ft
800 to 1500m
200 to 500 ft
< 800m
< 200 ft
Symbols :   Thunderstorms  Fog  Heavy snow  Heavy precipitations  Wind > 20 kt
SIGMETs :     Misc.  Thunderstorms  Icing  Turbulence  Mountain Waves  Volcanic Ashes






- Airport Elevation : 245 ft
- IATA code : BIQ


LFBZ - Biarritz

CURRENT METAR :
  • 160530Z AUTO 17003KT 6000 1900 NSC 03/02 Q1030 NOSIG

EXPIRED METARs :
  • 160500Z AUTO 15003KT 110V170 5000 0800 R09/P2000 R27/1400D BCFG NSC 04/03 Q1030 NOSIG
  • 160430Z AUTO 13003KT 6000 0650 R09/1600D R27/P2000 BCFG NSC 04/03 Q1030 NOSIG
  • 160400Z AUTO 12003KT 5000 BR FEW036 04/04 Q1030 NOSIG
  • 160330Z AUTO VRB03KT 9999 BKN037 05/04 Q1030 TEMPO 4000 BR
  • 160300Z AUTO 07004KT 9999 2200 BKN036 05/04 Q1030 TEMPO 4000 BR

TAF TAF LFBZ
Valid from the 16 at 06:00 until the 17 at 06:00 UTC


160500Z 1606/1706 13005KT 9999 BKN030
PROB40
TEMPO 1606/1608 4000 BR
BECMG 1608/1610 CAVOK
BECMG 1617/1619 26010KT
BECMG 1621/1623 BKN012
TEMPO 1703/1706 4000 -RA BKN005



MET'MAP, your aeronautical weather chart ! - Copyright ORBIFLY December 2007 - Disclaimer

ORBIFLY MET'MAP TEAM :

Programming & Development : Alexandra Zaïnal
Concept & original design : Baudouin d'Aumeries
Assistance for programming : Marc-Olivier Méhu
Technical & hardware support : Manuel Goepfert

Contact : metmap@orbifly.com




SOURCES & CREDITS :

   NOAA